sensor_id;sensor_type;location;lat;lon;timestamp;temperature;humidity
22765;DHT22;11549;50.852;3.816;2024-01-06T00:01:10;7.80;99.90
22765;DHT22;11549;50.852;3.816;2024-01-06T00:03:41;7.60;99.90
22765;DHT22;11549;50.852;3.816;2024-01-06T00:06:11;7.50;99.90
22765;DHT22;11549;50.852;3.816;2024-01-06T00:08:40;7.60;99.90
22765;DHT22;11549;50.852;3.816;2024-01-06T00:11:09;7.60;99.90
22765;DHT22;11549;50.852;3.816;2024-01-06T00:13:37;7.60;99.90
22765;DHT22;11549;50.852;3.816;2024-01-06T00:16:06;7.60;99.90
22765;DHT22;11549;50.852;3.816;2024-01-06T00:18:34;7.70;99.90
22765;DHT22;11549;50.852;3.816;2024-01-06T00:21:05;7.60;99.90
22765;DHT22;11549;50.852;3.816;2024-01-06T00:23:33;7.70;99.90
22765;DHT22;11549;50.852;3.816;2024-01-06T00:26:02;7.70;99.90
22765;DHT22;11549;50.852;3.816;2024-01-06T00:28:30;7.70;99.90
22765;DHT22;11549;50.852;3.816;2024-01-06T00:30:59;7.70;99.90
22765;DHT22;11549;50.852;3.816;2024-01-06T00:33:27;7.70;99.90
22765;DHT22;11549;50.852;3.816;2024-01-06T00:35:56;7.70;99.90
22765;DHT22;11549;50.852;3.816;2024-01-06T00:38:25;7.70;99.90
22765;DHT22;11549;50.852;3.816;2024-01-06T00:40:54;7.80;99.90
22765;DHT22;11549;50.852;3.816;2024-01-06T00:43:22;7.90;99.90
22765;DHT22;11549;50.852;3.816;2024-01-06T00:45:50;7.80;99.90
22765;DHT22;11549;50.852;3.816;2024-01-06T00:48:19;7.80;99.90
22765;DHT22;11549;50.852;3.816;2024-01-06T00:50:48;7.80;99.90
22765;DHT22;11549;50.852;3.816;2024-01-06T00:53:16;7.80;99.90
22765;DHT22;11549;50.852;3.816;2024-01-06T00:55:45;7.70;99.90
22765;DHT22;11549;50.852;3.816;2024-01-06T00:58:14;7.70;99.90
22765;DHT22;11549;50.852;3.816;2024-01-06T01:00:42;7.70;99.90
22765;DHT22;11549;50.852;3.816;2024-01-06T01:03:11;7.80;99.90
22765;DHT22;11549;50.852;3.816;2024-01-06T01:05:39;7.80;99.90
22765;DHT22;11549;50.852;3.816;2024-01-06T01:08:08;7.80;99.90
22765;DHT22;11549;50.852;3.816;2024-01-06T01:10:36;7.70;99.90
22765;DHT22;11549;50.852;3.816;2024-01-06T01:13:06;7.80;99.90
22765;DHT22;11549;50.852;3.816;2024-01-06T01:15:34;7.80;99.90
22765;DHT22;11549;50.852;3.816;2024-01-06T01:18:03;7.80;99.90
22765;DHT22;11549;50.852;3.816;2024-01-06T01:20:32;7.80;99.90
22765;DHT22;11549;50.852;3.816;2024-01-06T01:23:01;7.80;99.90
22765;DHT22;11549;50.852;3.816;2024-01-06T01:25:29;7.90;99.90
22765;DHT22;11549;50.852;3.816;2024-01-06T01:27:57;7.80;99.90
22765;DHT22;11549;50.852;3.816;2024-01-06T01:30:27;7.90;99.90
22765;DHT22;11549;50.852;3.816;2024-01-06T01:32:56;7.80;99.90
22765;DHT22;11549;50.852;3.816;2024-01-06T01:35:24;7.80;99.90
22765;DHT22;11549;50.852;3.816;2024-01-06T01:37:53;7.80;99.90
22765;DHT22;11549;50.852;3.816;2024-01-06T01:40:21;7.80;99.90
22765;DHT22;11549;50.852;3.816;2024-01-06T01:42:50;7.80;99.90
22765;DHT22;11549;50.852;3.816;2024-01-06T01:45:18;7.90;99.90
22765;DHT22;11549;50.852;3.816;2024-01-06T01:47:48;7.80;99.90
22765;DHT22;11549;50.852;3.816;2024-01-06T01:50:17;7.80;99.90
22765;DHT22;11549;50.852;3.816;2024-01-06T01:52:47;7.70;99.90
22765;DHT22;11549;50.852;3.816;2024-01-06T01:55:15;7.80;99.90
22765;DHT22;11549;50.852;3.816;2024-01-06T01:57:44;7.70;99.90
22765;DHT22;11549;50.852;3.816;2024-01-06T02:00:13;7.70;99.90
22765;DHT22;11549;50.852;3.816;2024-01-06T02:02:42;7.80;99.90
22765;DHT22;11549;50.852;3.816;2024-01-06T02:05:12;7.80;99.90
22765;DHT22;11549;50.852;3.816;2024-01-06T02:07:41;7.80;99.90
22765;DHT22;11549;50.852;3.816;2024-01-06T02:10:09;7.80;99.90
22765;DHT22;11549;50.852;3.816;2024-01-06T02:12:38;7.80;99.90
22765;DHT22;11549;50.852;3.816;2024-01-06T02:15:07;7.80;99.90
22765;DHT22;11549;50.852;3.816;2024-01-06T02:17:35;7.70;99.90
22765;DHT22;11549;50.852;3.816;2024-01-06T02:20:07;7.70;99.90
22765;DHT22;11549;50.852;3.816;2024-01-06T02:22:37;7.70;99.90
22765;DHT22;11549;50.852;3.816;2024-01-06T02:25:07;7.60;99.90
22765;DHT22;11549;50.852;3.816;2024-01-06T02:27:39;7.50;99.90
22765;DHT22;11549;50.852;3.816;2024-01-06T02:30:09;7.50;99.90
22765;DHT22;11549;50.852;3.816;2024-01-06T02:32:38;7.50;99.90
22765;DHT22;11549;50.852;3.816;2024-01-06T02:35:07;7.50;99.90
22765;DHT22;11549;50.852;3.816;2024-01-06T02:37:37;7.50;99.90
22765;DHT22;11549;50.852;3.816;2024-01-06T02:40:06;7.50;99.90
22765;DHT22;11549;50.852;3.816;2024-01-06T02:42:34;7.60;99.90
22765;DHT22;11549;50.852;3.816;2024-01-06T02:45:04;7.50;99.90
22765;DHT22;11549;50.852;3.816;2024-01-06T02:47:33;7.50;99.90
22765;DHT22;11549;50.852;3.816;2024-01-06T02:50:01;7.40;99.90
22765;DHT22;11549;50.852;3.816;2024-01-06T02:52:30;7.50;99.90
22765;DHT22;11549;50.852;3.816;2024-01-06T02:55:00;7.50;99.90
22765;DHT22;11549;50.852;3.816;2024-01-06T02:57:29;7.50;99.90
22765;DHT22;11549;50.852;3.816;2024-01-06T02:59:57;7.50;99.90
22765;DHT22;11549;50.852;3.816;2024-01-06T03:02:26;7.60;99.90
22765;DHT22;11549;50.852;3.816;2024-01-06T03:04:54;7.60;99.90
22765;DHT22;11549;50.852;3.816;2024-01-06T03:07:23;7.70;99.90
22765;DHT22;11549;50.852;3.816;2024-01-06T03:09:51;7.70;99.90
22765;DHT22;11549;50.852;3.816;2024-01-06T03:12:21;7.70;99.90
22765;DHT22;11549;50.852;3.816;2024-01-06T03:14:50;7.70;99.90
22765;DHT22;11549;50.852;3.816;2024-01-06T03:17:18;7.70;99.90
22765;DHT22;11549;50.852;3.816;2024-01-06T03:19:47;7.60;99.90
22765;DHT22;11549;50.852;3.816;2024-01-06T03:22:16;7.60;99.90
22765;DHT22;11549;50.852;3.816;2024-01-06T03:24:44;7.50;99.90
22765;DHT22;11549;50.852;3.816;2024-01-06T03:27:12;7.50;99.90
22765;DHT22;11549;50.852;3.816;2024-01-06T03:29:42;7.50;99.90
22765;DHT22;11549;50.852;3.816;2024-01-06T03:32:11;7.60;99.90
22765;DHT22;11549;50.852;3.816;2024-01-06T03:34:40;7.60;99.90
22765;DHT22;11549;50.852;3.816;2024-01-06T03:37:09;7.50;99.90
22765;DHT22;11549;50.852;3.816;2024-01-06T03:39:37;7.60;99.90
22765;DHT22;11549;50.852;3.816;2024-01-06T03:42:06;7.60;99.90
22765;DHT22;11549;50.852;3.816;2024-01-06T03:44:34;7.50;99.90
22765;DHT22;11549;50.852;3.816;2024-01-06T03:47:04;7.50;99.90
22765;DHT22;11549;50.852;3.816;2024-01-06T03:49:33;7.50;99.90
22765;DHT22;11549;50.852;3.816;2024-01-06T03:52:01;7.50;99.90
22765;DHT22;11549;50.852;3.816;2024-01-06T03:54:30;7.60;99.90
22765;DHT22;11549;50.852;3.816;2024-01-06T03:56:58;7.50;99.90
22765;DHT22;11549;50.852;3.816;2024-01-06T03:59:27;7.50;99.90
22765;DHT22;11549;50.852;3.816;2024-01-06T04:01:55;7.60;99.90
22765;DHT22;11549;50.852;3.816;2024-01-06T04:04:25;7.50;99.90
22765;DHT22;11549;50.852;3.816;2024-01-06T04:06:54;7.50;99.90
22765;DHT22;11549;50.852;3.816;2024-01-06T04:09:22;7.50;99.90
22765;DHT22;11549;50.852;3.816;2024-01-06T04:11:50;7.60;99.90
22765;DHT22;11549;50.852;3.816;2024-01-06T04:14:19;7.50;99.90
22765;DHT22;11549;50.852;3.816;2024-01-06T04:16:47;7.40;99.90
22765;DHT22;11549;50.852;3.816;2024-01-06T04:19:15;7.50;99.90
22765;DHT22;11549;50.852;3.816;2024-01-06T04:21:45;7.50;99.90
22765;DHT22;11549;50.852;3.816;2024-01-06T04:24:15;7.50;99.90
22765;DHT22;11549;50.852;3.816;2024-01-06T04:26:43;7.40;99.90
22765;DHT22;11549;50.852;3.816;2024-01-06T04:29:13;7.50;99.90
22765;DHT22;11549;50.852;3.816;2024-01-06T04:31:41;7.50;99.90
22765;DHT22;11549;50.852;3.816;2024-01-06T04:34:10;7.60;99.90
22765;DHT22;11549;50.852;3.816;2024-01-06T04:36:38;7.60;99.90
22765;DHT22;11549;50.852;3.816;2024-01-06T04:39:08;7.50;99.90
22765;DHT22;11549;50.852;3.816;2024-01-06T04:41:36;7.50;99.90
22765;DHT22;11549;50.852;3.816;2024-01-06T04:44:05;7.60;99.90
22765;DHT22;11549;50.852;3.816;2024-01-06T04:46:33;7.50;99.90
22765;DHT22;11549;50.852;3.816;2024-01-06T04:49:02;7.50;99.90
22765;DHT22;11549;50.852;3.816;2024-01-06T04:51:30;7.50;99.90
22765;DHT22;11549;50.852;3.816;2024-01-06T04:53:59;7.50;99.90
22765;DHT22;11549;50.852;3.816;2024-01-06T04:56:29;7.50;99.90
22765;DHT22;11549;50.852;3.816;2024-01-06T04:59:02;7.50;99.90
22765;DHT22;11549;50.852;3.816;2024-01-06T05:01:30;7.40;99.90
22765;DHT22;11549;50.852;3.816;2024-01-06T05:03:59;7.50;99.90
22765;DHT22;11549;50.852;3.816;2024-01-06T05:06:27;7.50;99.90
22765;DHT22;11549;50.852;3.816;2024-01-06T05:08:56;7.40;99.90
22765;DHT22;11549;50.852;3.816;2024-01-06T05:11:24;7.50;99.90
22765;DHT22;11549;50.852;3.816;2024-01-06T05:13:54;7.50;99.90
22765;DHT22;11549;50.852;3.816;2024-01-06T05:16:22;7.50;99.90
22765;DHT22;11549;50.852;3.816;2024-01-06T05:18:51;7.50;99.90
22765;DHT22;11549;50.852;3.816;2024-01-06T05:21:20;7.50;99.90
22765;DHT22;11549;50.852;3.816;2024-01-06T05:23:48;7.50;99.90
22765;DHT22;11549;50.852;3.816;2024-01-06T05:26:17;7.50;99.90
22765;DHT22;11549;50.852;3.816;2024-01-06T05:28:45;7.50;99.90
22765;DHT22;11549;50.852;3.816;2024-01-06T05:31:14;7.40;99.90
22765;DHT22;11549;50.852;3.816;2024-01-06T05:33:43;7.30;99.90
22765;DHT22;11549;50.852;3.816;2024-01-06T05:36:12;7.40;99.90
22765;DHT22;11549;50.852;3.816;2024-01-06T05:38:40;7.40;99.90
22765;DHT22;11549;50.852;3.816;2024-01-06T05:41:09;7.50;99.90
22765;DHT22;11549;50.852;3.816;2024-01-06T05:43:37;7.40;99.90
22765;DHT22;11549;50.852;3.816;2024-01-06T05:46:06;7.40;99.90
22765;DHT22;11549;50.852;3.816;2024-01-06T05:48:36;7.40;99.90
22765;DHT22;11549;50.852;3.816;2024-01-06T05:51:05;7.30;99.90
22765;DHT22;11549;50.852;3.816;2024-01-06T05:53:34;7.30;99.90
22765;DHT22;11549;50.852;3.816;2024-01-06T05:56:04;7.30;99.90
22765;DHT22;11549;50.852;3.816;2024-01-06T05:58:32;7.30;99.90
22765;DHT22;11549;50.852;3.816;2024-01-06T06:01:01;7.20;99.90
22765;DHT22;11549;50.852;3.816;2024-01-06T06:03:29;7.20;99.90
22765;DHT22;11549;50.852;3.816;2024-01-06T06:05:59;7.20;99.90
22765;DHT22;11549;50.852;3.816;2024-01-06T06:08:28;7.20;99.90
22765;DHT22;11549;50.852;3.816;2024-01-06T06:10:56;7.20;99.90
22765;DHT22;11549;50.852;3.816;2024-01-06T06:13:29;7.30;99.90
22765;DHT22;11549;50.852;3.816;2024-01-06T06:15:57;7.30;99.90
22765;DHT22;11549;50.852;3.816;2024-01-06T06:18:26;7.30;99.90
22765;DHT22;11549;50.852;3.816;2024-01-06T06:20:54;7.10;99.90
22765;DHT22;11549;50.852;3.816;2024-01-06T06:23:24;7.20;99.90
22765;DHT22;11549;50.852;3.816;2024-01-06T06:25:52;7.20;99.90
22765;DHT22;11549;50.852;3.816;2024-01-06T06:28:21;7.30;99.90
22765;DHT22;11549;50.852;3.816;2024-01-06T06:30:49;7.30;99.90
22765;DHT22;11549;50.852;3.816;2024-01-06T06:33:18;7.30;99.90
22765;DHT22;11549;50.852;3.816;2024-01-06T06:35:46;7.20;99.90
22765;DHT22;11549;50.852;3.816;2024-01-06T06:38:15;7.30;99.90
22765;DHT22;11549;50.852;3.816;2024-01-06T06:40:45;7.30;99.90
22765;DHT22;11549;50.852;3.816;2024-01-06T06:43:14;7.30;99.90
22765;DHT22;11549;50.852;3.816;2024-01-06T06:45:46;7.40;99.90
22765;DHT22;11549;50.852;3.816;2024-01-06T06:48:14;7.40;99.90
22765;DHT22;11549;50.852;3.816;2024-01-06T06:50:42;7.40;99.90
22765;DHT22;11549;50.852;3.816;2024-01-06T06:53:11;7.50;99.90
22765;DHT22;11549;50.852;3.816;2024-01-06T06:55:40;7.50;99.90
22765;DHT22;11549;50.852;3.816;2024-01-06T06:58:10;7.40;99.90
22765;DHT22;11549;50.852;3.816;2024-01-06T07:00:39;7.40;99.90
22765;DHT22;11549;50.852;3.816;2024-01-06T07:03:07;7.40;99.90
22765;DHT22;11549;50.852;3.816;2024-01-06T07:05:35;7.40;99.90
22765;DHT22;11549;50.852;3.816;2024-01-06T07:08:04;7.40;99.90
22765;DHT22;11549;50.852;3.816;2024-01-06T07:10:32;7.30;99.90
22765;DHT22;11549;50.852;3.816;2024-01-06T07:13:01;7.30;99.90
22765;DHT22;11549;50.852;3.816;2024-01-06T07:15:30;7.30;99.90
22765;DHT22;11549;50.852;3.816;2024-01-06T07:17:59;7.20;99.90
22765;DHT22;11549;50.852;3.816;2024-01-06T07:20:27;7.20;99.90
22765;DHT22;11549;50.852;3.816;2024-01-06T07:22:56;7.10;99.90
22765;DHT22;11549;50.852;3.816;2024-01-06T07:25:24;7.10;99.90
22765;DHT22;11549;50.852;3.816;2024-01-06T07:27:52;7.10;99.90
22765;DHT22;11549;50.852;3.816;2024-01-06T07:30:21;7.10;99.90
22765;DHT22;11549;50.852;3.816;2024-01-06T07:32:51;7.10;99.90
22765;DHT22;11549;50.852;3.816;2024-01-06T07:35:20;7.10;99.90
22765;DHT22;11549;50.852;3.816;2024-01-06T07:37:48;7.00;99.90
22765;DHT22;11549;50.852;3.816;2024-01-06T07:40:16;7.00;99.90
22765;DHT22;11549;50.852;3.816;2024-01-06T07:42:45;6.90;99.90
22765;DHT22;11549;50.852;3.816;2024-01-06T07:45:14;6.90;99.90
22765;DHT22;11549;50.852;3.816;2024-01-06T07:47:42;6.90;99.90
22765;DHT22;11549;50.852;3.816;2024-01-06T07:50:12;6.90;99.90
22765;DHT22;11549;50.852;3.816;2024-01-06T07:52:41;6.90;99.90
22765;DHT22;11549;50.852;3.816;2024-01-06T07:55:09;6.80;99.90
22765;DHT22;11549;50.852;3.816;2024-01-06T07:57:37;6.80;99.90
22765;DHT22;11549;50.852;3.816;2024-01-06T08:00:07;6.80;99.90
22765;DHT22;11549;50.852;3.816;2024-01-06T08:02:35;6.70;99.90
22765;DHT22;11549;50.852;3.816;2024-01-06T08:05:04;6.60;99.90
22765;DHT22;11549;50.852;3.816;2024-01-06T08:07:35;6.60;99.90
22765;DHT22;11549;50.852;3.816;2024-01-06T08:10:04;6.60;99.90
22765;DHT22;11549;50.852;3.816;2024-01-06T08:12:33;6.70;99.90
22765;DHT22;11549;50.852;3.816;2024-01-06T08:15:02;6.70;99.90
22765;DHT22;11549;50.852;3.816;2024-01-06T08:17:31;6.60;99.90
22765;DHT22;11549;50.852;3.816;2024-01-06T08:20:00;6.60;99.90
22765;DHT22;11549;50.852;3.816;2024-01-06T08:22:28;6.70;99.90
22765;DHT22;11549;50.852;3.816;2024-01-06T08:24:58;6.70;99.90
22765;DHT22;11549;50.852;3.816;2024-01-06T08:27:26;6.80;99.90
22765;DHT22;11549;50.852;3.816;2024-01-06T08:29:55;6.80;99.90
22765;DHT22;11549;50.852;3.816;2024-01-06T08:32:23;6.80;99.90
22765;DHT22;11549;50.852;3.816;2024-01-06T08:34:51;6.90;99.90
22765;DHT22;11549;50.852;3.816;2024-01-06T08:37:20;6.90;99.90
22765;DHT22;11549;50.852;3.816;2024-01-06T08:39:48;6.80;99.90
22765;DHT22;11549;50.852;3.816;2024-01-06T08:42:18;6.80;99.90
22765;DHT22;11549;50.852;3.816;2024-01-06T08:44:46;6.80;99.90
22765;DHT22;11549;50.852;3.816;2024-01-06T08:47:15;6.90;99.90
22765;DHT22;11549;50.852;3.816;2024-01-06T08:49:43;6.80;99.90
22765;DHT22;11549;50.852;3.816;2024-01-06T08:52:12;6.70;99.90
22765;DHT22;11549;50.852;3.816;2024-01-06T08:54:40;6.80;99.90
22765;DHT22;11549;50.852;3.816;2024-01-06T08:57:08;6.80;99.90
22765;DHT22;11549;50.852;3.816;2024-01-06T08:59:38;6.80;99.90
22765;DHT22;11549;50.852;3.816;2024-01-06T09:02:07;6.80;99.90
22765;DHT22;11549;50.852;3.816;2024-01-06T09:04:35;6.90;99.90
22765;DHT22;11549;50.852;3.816;2024-01-06T09:07:04;6.80;99.90
22765;DHT22;11549;50.852;3.816;2024-01-06T09:09:32;6.90;99.90
22765;DHT22;11549;50.852;3.816;2024-01-06T09:12:01;6.90;99.90
22765;DHT22;11549;50.852;3.816;2024-01-06T09:14:29;6.90;99.90
22765;DHT22;11549;50.852;3.816;2024-01-06T09:16:59;6.90;99.90
22765;DHT22;11549;50.852;3.816;2024-01-06T09:19:27;7.00;99.90
22765;DHT22;11549;50.852;3.816;2024-01-06T09:21:57;6.90;99.90
22765;DHT22;11549;50.852;3.816;2024-01-06T09:24:26;7.00;99.90
22765;DHT22;11549;50.852;3.816;2024-01-06T09:26:55;7.00;99.90
22765;DHT22;11549;50.852;3.816;2024-01-06T09:29:23;6.80;99.90
22765;DHT22;11549;50.852;3.816;2024-01-06T09:31:51;7.00;99.90
22765;DHT22;11549;50.852;3.816;2024-01-06T09:34:21;6.90;99.90
22765;DHT22;11549;50.852;3.816;2024-01-06T09:36:49;6.80;99.90
22765;DHT22;11549;50.852;3.816;2024-01-06T09:39:18;6.70;99.90
22765;DHT22;11549;50.852;3.816;2024-01-06T09:41:46;6.60;99.90
22765;DHT22;11549;50.852;3.816;2024-01-06T09:44:15;6.40;99.90
22765;DHT22;11549;50.852;3.816;2024-01-06T09:46:44;6.40;99.90
22765;DHT22;11549;50.852;3.816;2024-01-06T09:49:14;6.50;99.90
22765;DHT22;11549;50.852;3.816;2024-01-06T09:51:49;6.50;99.90
22765;DHT22;11549;50.852;3.816;2024-01-06T09:54:20;6.60;99.90
22765;DHT22;11549;50.852;3.816;2024-01-06T09:56:51;6.50;99.90
22765;DHT22;11549;50.852;3.816;2024-01-06T09:59:20;6.40;99.90
22765;DHT22;11549;50.852;3.816;2024-01-06T10:01:49;6.40;99.90
22765;DHT22;11549;50.852;3.816;2024-01-06T10:04:20;6.40;99.90
22765;DHT22;11549;50.852;3.816;2024-01-06T10:06:52;6.30;99.90
22765;DHT22;11549;50.852;3.816;2024-01-06T10:09:26;6.20;99.90
22765;DHT22;11549;50.852;3.816;2024-01-06T10:11:55;6.30;99.90
22765;DHT22;11549;50.852;3.816;2024-01-06T10:14:25;6.20;99.90
22765;DHT22;11549;50.852;3.816;2024-01-06T10:16:54;6.30;99.90
22765;DHT22;11549;50.852;3.816;2024-01-06T10:19:23;6.40;99.90
22765;DHT22;11549;50.852;3.816;2024-01-06T10:21:54;6.40;99.90
22765;DHT22;11549;50.852;3.816;2024-01-06T10:24:23;6.40;99.90
22765;DHT22;11549;50.852;3.816;2024-01-06T10:26:51;6.40;99.90
22765;DHT22;11549;50.852;3.816;2024-01-06T10:29:19;6.50;99.90
22765;DHT22;11549;50.852;3.816;2024-01-06T10:31:48;6.50;99.90
22765;DHT22;11549;50.852;3.816;2024-01-06T10:34:21;6.50;99.90
22765;DHT22;11549;50.852;3.816;2024-01-06T10:36:50;6.40;99.90
22765;DHT22;11549;50.852;3.816;2024-01-06T10:39:21;6.30;99.90
22765;DHT22;11549;50.852;3.816;2024-01-06T10:41:49;6.20;99.90
22765;DHT22;11549;50.852;3.816;2024-01-06T10:44:19;6.20;99.90
22765;DHT22;11549;50.852;3.816;2024-01-06T10:46:50;6.10;99.90
22765;DHT22;11549;50.852;3.816;2024-01-06T10:49:20;6.00;99.90
22765;DHT22;11549;50.852;3.816;2024-01-06T10:51:51;6.10;99.90
22765;DHT22;11549;50.852;3.816;2024-01-06T10:54:24;6.10;99.90
22765;DHT22;11549;50.852;3.816;2024-01-06T10:56:54;6.00;99.90
22765;DHT22;11549;50.852;3.816;2024-01-06T10:59:23;6.10;99.90
22765;DHT22;11549;50.852;3.816;2024-01-06T11:01:54;6.10;99.90
22765;DHT22;11549;50.852;3.816;2024-01-06T11:04:23;6.20;99.90
22765;DHT22;11549;50.852;3.816;2024-01-06T11:06:52;6.30;99.90
22765;DHT22;11549;50.852;3.816;2024-01-06T11:09:25;6.30;99.90
22765;DHT22;11549;50.852;3.816;2024-01-06T11:11:55;6.30;99.90
22765;DHT22;11549;50.852;3.816;2024-01-06T11:14:25;6.30;99.90
22765;DHT22;11549;50.852;3.816;2024-01-06T11:16:55;6.40;99.90
22765;DHT22;11549;50.852;3.816;2024-01-06T11:19:43;6.20;99.90
22765;DHT22;11549;50.852;3.816;2024-01-06T11:22:19;6.20;99.90
22765;DHT22;11549;50.852;3.816;2024-01-06T11:24:50;6.40;99.90
22765;DHT22;11549;50.852;3.816;2024-01-06T11:27:20;6.40;99.90
22765;DHT22;11549;50.852;3.816;2024-01-06T11:29:51;6.30;99.90
22765;DHT22;11549;50.852;3.816;2024-01-06T11:32:27;6.40;99.90
22765;DHT22;11549;50.852;3.816;2024-01-06T11:35:04;6.30;99.90
22765;DHT22;11549;50.852;3.816;2024-01-06T11:37:37;6.10;99.90
22765;DHT22;11549;50.852;3.816;2024-01-06T11:40:25;6.20;99.90
22765;DHT22;11549;50.852;3.816;2024-01-06T11:42:58;6.30;99.90
22765;DHT22;11549;50.852;3.816;2024-01-06T11:45:27;6.20;99.90
22765;DHT22;11549;50.852;3.816;2024-01-06T11:47:57;6.10;99.90
22765;DHT22;11549;50.852;3.816;2024-01-06T11:50:27;6.10;99.90
22765;DHT22;11549;50.852;3.816;2024-01-06T11:52:56;6.20;99.90
22765;DHT22;11549;50.852;3.816;2024-01-06T11:55:28;6.20;99.90
22765;DHT22;11549;50.852;3.816;2024-01-06T11:58:00;6.20;99.90
22765;DHT22;11549;50.852;3.816;2024-01-06T12:00:31;6.20;99.90
22765;DHT22;11549;50.852;3.816;2024-01-06T12:03:00;6.20;99.90
22765;DHT22;11549;50.852;3.816;2024-01-06T12:05:29;6.10;99.90
22765;DHT22;11549;50.852;3.816;2024-01-06T12:07:59;6.10;99.90
22765;DHT22;11549;50.852;3.816;2024-01-06T12:10:29;6.00;99.90
22765;DHT22;11549;50.852;3.816;2024-01-06T12:12:59;6.00;99.90
22765;DHT22;11549;50.852;3.816;2024-01-06T12:15:29;6.00;99.90
22765;DHT22;11549;50.852;3.816;2024-01-06T12:17:58;6.10;99.90
22765;DHT22;11549;50.852;3.816;2024-01-06T12:20:26;6.00;99.90
22765;DHT22;11549;50.852;3.816;2024-01-06T12:22:56;5.90;99.90
22765;DHT22;11549;50.852;3.816;2024-01-06T12:25:26;5.90;99.90
22765;DHT22;11549;50.852;3.816;2024-01-06T12:27:58;5.80;99.90
22765;DHT22;11549;50.852;3.816;2024-01-06T12:30:28;5.80;99.90
22765;DHT22;11549;50.852;3.816;2024-01-06T12:32:59;5.90;99.90
22765;DHT22;11549;50.852;3.816;2024-01-06T12:35:28;5.90;99.90
22765;DHT22;11549;50.852;3.816;2024-01-06T12:37:57;5.90;99.90
22765;DHT22;11549;50.852;3.816;2024-01-06T12:40:25;5.90;99.90
22765;DHT22;11549;50.852;3.816;2024-01-06T12:42:53;6.00;99.90
22765;DHT22;11549;50.852;3.816;2024-01-06T12:45:23;5.90;99.90
22765;DHT22;11549;50.852;3.816;2024-01-06T12:47:52;5.90;99.90
22765;DHT22;11549;50.852;3.816;2024-01-06T12:50:21;5.90;99.90
22765;DHT22;11549;50.852;3.816;2024-01-06T12:52:49;5.90;99.90
22765;DHT22;11549;50.852;3.816;2024-01-06T12:55:18;5.90;99.90
22765;DHT22;11549;50.852;3.816;2024-01-06T12:57:46;5.90;99.90
22765;DHT22;11549;50.852;3.816;2024-01-06T13:00:15;5.90;99.90
22765;DHT22;11549;50.852;3.816;2024-01-06T13:02:45;5.90;99.90
22765;DHT22;11549;50.852;3.816;2024-01-06T13:05:14;5.80;99.90
22765;DHT22;11549;50.852;3.816;2024-01-06T13:07:44;5.70;99.90
22765;DHT22;11549;50.852;3.816;2024-01-06T13:10:12;5.70;99.90
22765;DHT22;11549;50.852;3.816;2024-01-06T13:12:41;5.70;99.90
22765;DHT22;11549;50.852;3.816;2024-01-06T13:15:09;5.80;99.90
22765;DHT22;11549;50.852;3.816;2024-01-06T13:17:38;5.70;99.90
22765;DHT22;11549;50.852;3.816;2024-01-06T13:20:09;5.70;99.90
22765;DHT22;11549;50.852;3.816;2024-01-06T13:22:38;5.70;99.90
22765;DHT22;11549;50.852;3.816;2024-01-06T13:25:07;5.90;99.90
22765;DHT22;11549;50.852;3.816;2024-01-06T13:27:36;6.00;99.90
22765;DHT22;11549;50.852;3.816;2024-01-06T13:30:06;5.90;99.90
22765;DHT22;11549;50.852;3.816;2024-01-06T13:32:34;5.90;99.90
22765;DHT22;11549;50.852;3.816;2024-01-06T13:35:03;6.00;99.90
22765;DHT22;11549;50.852;3.816;2024-01-06T13:37:34;6.00;99.90
22765;DHT22;11549;50.852;3.816;2024-01-06T13:40:02;5.90;99.90
22765;DHT22;11549;50.852;3.816;2024-01-06T13:42:34;5.90;99.90
22765;DHT22;11549;50.852;3.816;2024-01-06T13:45:04;5.80;99.90
22765;DHT22;11549;50.852;3.816;2024-01-06T13:47:32;6.00;99.90
22765;DHT22;11549;50.852;3.816;2024-01-06T13:50:02;6.00;99.90
22765;DHT22;11549;50.852;3.816;2024-01-06T13:52:30;6.10;99.90
22765;DHT22;11549;50.852;3.816;2024-01-06T13:55:00;6.10;99.90
22765;DHT22;11549;50.852;3.816;2024-01-06T13:57:29;6.10;99.90
22765;DHT22;11549;50.852;3.816;2024-01-06T13:59:57;6.10;99.90
22765;DHT22;11549;50.852;3.816;2024-01-06T14:02:25;5.90;99.90
22765;DHT22;11549;50.852;3.816;2024-01-06T14:04:54;5.90;99.90
22765;DHT22;11549;50.852;3.816;2024-01-06T14:07:23;6.00;99.90
22765;DHT22;11549;50.852;3.816;2024-01-06T14:09:52;5.90;99.90
22765;DHT22;11549;50.852;3.816;2024-01-06T14:12:23;5.80;99.90
22765;DHT22;11549;50.852;3.816;2024-01-06T14:14:51;5.90;99.90
22765;DHT22;11549;50.852;3.816;2024-01-06T14:17:19;5.90;99.90
22765;DHT22;11549;50.852;3.816;2024-01-06T14:19:48;5.90;99.90
22765;DHT22;11549;50.852;3.816;2024-01-06T14:22:16;5.80;99.90
22765;DHT22;11549;50.852;3.816;2024-01-06T14:24:45;5.90;99.90
22765;DHT22;11549;50.852;3.816;2024-01-06T14:27:13;5.80;99.90
22765;DHT22;11549;50.852;3.816;2024-01-06T14:29:43;5.80;99.90
22765;DHT22;11549;50.852;3.816;2024-01-06T14:32:12;5.80;99.90
22765;DHT22;11549;50.852;3.816;2024-01-06T14:34:40;5.80;99.90
22765;DHT22;11549;50.852;3.816;2024-01-06T14:37:08;5.90;99.90
22765;DHT22;11549;50.852;3.816;2024-01-06T14:39:37;5.90;99.90
22765;DHT22;11549;50.852;3.816;2024-01-06T14:42:06;5.90;99.90
22765;DHT22;11549;50.852;3.816;2024-01-06T14:44:35;5.90;99.90
22765;DHT22;11549;50.852;3.816;2024-01-06T14:47:05;5.90;99.90
22765;DHT22;11549;50.852;3.816;2024-01-06T14:49:34;5.90;99.90
22765;DHT22;11549;50.852;3.816;2024-01-06T14:52:05;5.80;99.90
22765;DHT22;11549;50.852;3.816;2024-01-06T14:54:35;5.80;99.90
22765;DHT22;11549;50.852;3.816;2024-01-06T14:57:04;5.70;99.90
22765;DHT22;11549;50.852;3.816;2024-01-06T14:59:32;5.70;99.90
22765;DHT22;11549;50.852;3.816;2024-01-06T15:02:06;5.80;99.90
22765;DHT22;11549;50.852;3.816;2024-01-06T15:04:37;5.90;99.90
22765;DHT22;11549;50.852;3.816;2024-01-06T15:07:05;5.80;99.90
22765;DHT22;11549;50.852;3.816;2024-01-06T15:09:38;5.80;99.90
22765;DHT22;11549;50.852;3.816;2024-01-06T15:12:08;5.80;99.90
22765;DHT22;11549;50.852;3.816;2024-01-06T15:14:36;5.90;99.90
22765;DHT22;11549;50.852;3.816;2024-01-06T15:17:06;5.90;99.90
22765;DHT22;11549;50.852;3.816;2024-01-06T15:19:34;5.90;99.90
22765;DHT22;11549;50.852;3.816;2024-01-06T15:22:05;5.80;99.90
22765;DHT22;11549;50.852;3.816;2024-01-06T15:24:33;5.70;99.90
22765;DHT22;11549;50.852;3.816;2024-01-06T15:27:01;5.80;99.90
22765;DHT22;11549;50.852;3.816;2024-01-06T15:29:30;5.70;99.90
22765;DHT22;11549;50.852;3.816;2024-01-06T15:31:58;5.70;99.90
22765;DHT22;11549;50.852;3.816;2024-01-06T15:34:28;5.70;99.90
22765;DHT22;11549;50.852;3.816;2024-01-06T15:36:57;5.70;99.90
22765;DHT22;11549;50.852;3.816;2024-01-06T15:39:25;5.60;99.90
22765;DHT22;11549;50.852;3.816;2024-01-06T15:41:54;5.50;99.90
22765;DHT22;11549;50.852;3.816;2024-01-06T15:44:22;5.50;99.90
22765;DHT22;11549;50.852;3.816;2024-01-06T15:46:50;5.50;99.90
22765;DHT22;11549;50.852;3.816;2024-01-06T15:49:19;5.60;99.90
22765;DHT22;11549;50.852;3.816;2024-01-06T15:51:49;5.60;99.90
22765;DHT22;11549;50.852;3.816;2024-01-06T15:54:17;5.50;99.90
22765;DHT22;11549;50.852;3.816;2024-01-06T15:56:49;5.40;99.90